This is the latest recevied weather packets stored in our database for station/object M0TJX-1. If no packets are shown the sender has not sent any weather packets the latest 10 day(s).
| Time | Temp. | Humidity | Pressure | Rain* | Wind** | Luminosity | Snow |
|---|---|---|---|---|---|---|---|
| 1787513128 | 20.56° C | 47% | 1022.6 hPa | 0 mm | - | - | - |
| 1787512228 | 21.11° C | 46% | 1022.7 hPa | 0 mm | - | - | - |
| 1787510428 | 21.67° C | 45% | 1022.8 hPa | 0 mm | - | - | - |
| 1787509529 | 21.67° C | 46% | 1022.8 hPa | 0 mm | - | - | - |
| 1787508628 | 22.22° C | 45% | 1022.7 hPa | 0 mm | - | - | - |
| 1787507728 | 22.78° C | 44% | 1022.7 hPa | 0 mm | - | - | - |
| 1787506828 | 22.78° C | 41% | 1022.8 hPa | 0 mm | - | - | - |
| 1787505928 | 23.89° C | 39% | 1023 hPa | 0 mm | - | - | - |
| 1787505028 | 24.44° C | 37% | 1023 hPa | 0 mm | - | - | - |
| 1787504128 | 25° C | 38% | 1023.1 hPa | 0 mm | - | - | - |
| 1787503228 | 25° C | 39% | 1023 hPa | 0 mm | - | - | - |
| 1787502328 | 23.89° C | 41% | 1023.1 hPa | 0 mm | - | - | - |
| 1787501429 | 23.89° C | 42% | 1023.3 hPa | 0 mm | - | - | - |
| 1787500529 | 25° C | 40% | 1023.4 hPa | 0 mm | - | - | - |
| 1787499629 | 25° C | 40% | 1023.5 hPa | 0 mm | - | - | - |
| 1787498729 | 24.44° C | 40% | 1023.7 hPa | 0 mm | - | - | - |
| 1787497829 | 24.44° C | 41% | 1023.9 hPa | 0 mm | - | - | - |
| 1787496929 | 23.89° C | 43% | 1024 hPa | 0 mm | - | - | - |
| 1787496029 | 24.44° C | 42% | 1024.1 hPa | 0 mm | - | - | - |
| 1787495129 | 25.56° C | 41% | 1024.3 hPa | 0 mm | - | - | - |
| 1787494229 | 25° C | 41% | 1024.2 hPa | 0 mm | - | - | - |
| 1787493329 | 24.44° C | 43% | 1024.5 hPa | 0 mm | - | - | - |
| 1787492429 | 23.33° C | 46% | 1024.6 hPa | 0 mm | - | - | - |
| 1787491529 | 23.33° C | 44% | 1024.8 hPa | 0 mm | - | - | - |
| 1787490629 | 24.44° C | 42% | 1024.9 hPa | 0 mm | - | - | - |
* Rain latest hour (hover to see other rain measurements)
** Current wind speed in m/s (hover to see current wind gust speed)